sensor_id;sensor_type;location;lat;lon;timestamp;temperature;humidity
610;DHT22;292;48.800;9.216;2023-02-22T00:00:29;10.00;66.70
610;DHT22;292;48.800;9.216;2023-02-22T00:03:10;10.00;66.70
610;DHT22;292;48.800;9.216;2023-02-22T00:05:39;10.00;66.70
610;DHT22;292;48.800;9.216;2023-02-22T00:08:09;10.00;66.70
610;DHT22;292;48.800;9.216;2023-02-22T00:10:36;10.00;66.70
610;DHT22;292;48.800;9.216;2023-02-22T00:13:06;10.00;66.90
610;DHT22;292;48.800;9.216;2023-02-22T00:15:34;10.10;66.90
610;DHT22;292;48.800;9.216;2023-02-22T00:18:02;10.10;66.90
610;DHT22;292;48.800;9.216;2023-02-22T00:20:30;10.10;66.70
610;DHT22;292;48.800;9.216;2023-02-22T00:22:57;10.10;66.70
610;DHT22;292;48.800;9.216;2023-02-22T00:25:26;10.10;66.70
610;DHT22;292;48.800;9.216;2023-02-22T00:27:53;10.00;66.60
610;DHT22;292;48.800;9.216;2023-02-22T00:30:23;10.00;66.60
610;DHT22;292;48.800;9.216;2023-02-22T00:32:52;10.00;66.30
610;DHT22;292;48.800;9.216;2023-02-22T00:35:21;9.90;66.40
610;DHT22;292;48.800;9.216;2023-02-22T00:37:52;9.80;66.70
610;DHT22;292;48.800;9.216;2023-02-22T00:40:22;9.80;66.90
610;DHT22;292;48.800;9.216;2023-02-22T00:42:50;9.70;67.20
610;DHT22;292;48.800;9.216;2023-02-22T00:45:19;9.70;67.30
610;DHT22;292;48.800;9.216;2023-02-22T00:47:47;9.70;67.60
610;DHT22;292;48.800;9.216;2023-02-22T00:50:14;9.70;67.60
610;DHT22;292;48.800;9.216;2023-02-22T00:52:42;9.70;67.60
610;DHT22;292;48.800;9.216;2023-02-22T00:55:15;9.70;67.60
610;DHT22;292;48.800;9.216;2023-02-22T00:57:42;9.70;67.60
610;DHT22;292;48.800;9.216;2023-02-22T01:00:16;9.70;67.50
610;DHT22;292;48.800;9.216;2023-02-22T01:02:43;9.60;67.50
610;DHT22;292;48.800;9.216;2023-02-22T01:05:12;9.60;67.30
610;DHT22;292;48.800;9.216;2023-02-22T01:07:41;9.50;67.50
610;DHT22;292;48.800;9.216;2023-02-22T01:10:11;9.50;67.60
610;DHT22;292;48.800;9.216;2023-02-22T01:12:38;9.40;67.90
610;DHT22;292;48.800;9.216;2023-02-22T01:15:07;9.30;68.20
610;DHT22;292;48.800;9.216;2023-02-22T01:17:35;9.40;68.20
610;DHT22;292;48.800;9.216;2023-02-22T01:20:03;9.30;68.20
610;DHT22;292;48.800;9.216;2023-02-22T01:22:34;9.30;68.20
610;DHT22;292;48.800;9.216;2023-02-22T01:25:02;9.30;67.90
610;DHT22;292;48.800;9.216;2023-02-22T01:27:33;9.20;68.00
610;DHT22;292;48.800;9.216;2023-02-22T01:30:00;9.10;68.20
610;DHT22;292;48.800;9.216;2023-02-22T01:32:33;9.00;68.30
610;DHT22;292;48.800;9.216;2023-02-22T01:35:00;8.90;68.50
610;DHT22;292;48.800;9.216;2023-02-22T01:37:29;8.80;68.70
610;DHT22;292;48.800;9.216;2023-02-22T01:39:56;8.70;69.00
610;DHT22;292;48.800;9.216;2023-02-22T01:42:24;8.70;69.30
610;DHT22;292;48.800;9.216;2023-02-22T01:47:53;8.60;69.80
610;DHT22;292;48.800;9.216;2023-02-22T01:50:21;8.50;69.80
610;DHT22;292;48.800;9.216;2023-02-22T01:52:49;8.40;70.00
610;DHT22;292;48.800;9.216;2023-02-22T01:55:16;8.30;70.30
610;DHT22;292;48.800;9.216;2023-02-22T01:57:44;8.30;70.60
610;DHT22;292;48.800;9.216;2023-02-22T02:00:16;8.20;70.90
610;DHT22;292;48.800;9.216;2023-02-22T02:02:49;8.10;71.30
610;DHT22;292;48.800;9.216;2023-02-22T02:05:20;8.10;71.60
610;DHT22;292;48.800;9.216;2023-02-22T02:07:49;8.00;71.80
610;DHT22;292;48.800;9.216;2023-02-22T02:10:16;8.00;71.80
610;DHT22;292;48.800;9.216;2023-02-22T02:12:46;8.00;72.10
610;DHT22;292;48.800;9.216;2023-02-22T02:15:20;8.00;72.20
610;DHT22;292;48.800;9.216;2023-02-22T02:17:48;8.00;72.40
610;DHT22;292;48.800;9.216;2023-02-22T02:20:21;8.00;72.20
610;DHT22;292;48.800;9.216;2023-02-22T02:22:54;8.00;72.40
610;DHT22;292;48.800;9.216;2023-02-22T02:32:16;8.00;72.40
610;DHT22;292;48.800;9.216;2023-02-22T02:34:48;8.00;71.90
610;DHT22;292;48.800;9.216;2023-02-22T02:37:21;7.90;71.90
610;DHT22;292;48.800;9.216;2023-02-22T02:40:03;7.90;72.10
610;DHT22;292;48.800;9.216;2023-02-22T02:42:43;7.90;71.80
610;DHT22;292;48.800;9.216;2023-02-22T02:45:17;7.90;71.90
610;DHT22;292;48.800;9.216;2023-02-22T02:47:51;7.90;72.10
610;DHT22;292;48.800;9.216;2023-02-22T02:50:24;7.80;72.10
610;DHT22;292;48.800;9.216;2023-02-22T02:52:55;7.70;72.10
610;DHT22;292;48.800;9.216;2023-02-22T02:55:23;7.70;72.40
610;DHT22;292;48.800;9.216;2023-02-22T02:57:51;7.70;72.50
610;DHT22;292;48.800;9.216;2023-02-22T03:00:22;7.70;72.80
610;DHT22;292;48.800;9.216;2023-02-22T03:03:00;7.60;72.90
610;DHT22;292;48.800;9.216;2023-02-22T03:05:50;7.60;73.10
610;DHT22;292;48.800;9.216;2023-02-22T03:08:29;7.70;72.90
610;DHT22;292;48.800;9.216;2023-02-22T03:11:05;7.70;72.90
610;DHT22;292;48.800;9.216;2023-02-22T03:13:42;7.70;72.80
610;DHT22;292;48.800;9.216;2023-02-22T03:16:14;7.70;72.60
610;DHT22;292;48.800;9.216;2023-02-22T03:18:54;7.80;72.60
610;DHT22;292;48.800;9.216;2023-02-22T03:21:25;7.80;72.50
610;DHT22;292;48.800;9.216;2023-02-22T03:24:03;7.80;72.50
610;DHT22;292;48.800;9.216;2023-02-22T03:26:35;7.80;72.60
610;DHT22;292;48.800;9.216;2023-02-22T03:29:05;7.80;72.50
610;DHT22;292;48.800;9.216;2023-02-22T03:31:37;7.80;72.40
610;DHT22;292;48.800;9.216;2023-02-22T03:34:10;7.80;72.40
610;DHT22;292;48.800;9.216;2023-02-22T03:36:43;7.80;72.10
610;DHT22;292;48.800;9.216;2023-02-22T03:39:14;7.80;72.10
610;DHT22;292;48.800;9.216;2023-02-22T03:41:46;7.80;72.10
610;DHT22;292;48.800;9.216;2023-02-22T03:44:18;7.80;72.20
610;DHT22;292;48.800;9.216;2023-02-22T03:46:48;7.70;72.40
610;DHT22;292;48.800;9.216;2023-02-22T03:49:24;7.80;72.10
610;DHT22;292;48.800;9.216;2023-02-22T03:51:54;7.70;72.10
610;DHT22;292;48.800;9.216;2023-02-22T03:54:21;7.70;72.20
610;DHT22;292;48.800;9.216;2023-02-22T03:56:51;7.70;72.20
610;DHT22;292;48.800;9.216;2023-02-22T03:59:20;7.70;72.10
610;DHT22;292;48.800;9.216;2023-02-22T04:01:50;7.70;72.20
610;DHT22;292;48.800;9.216;2023-02-22T04:04:19;7.70;72.40
610;DHT22;292;48.800;9.216;2023-02-22T04:06:48;7.70;72.40
610;DHT22;292;48.800;9.216;2023-02-22T04:09:16;7.60;72.40
610;DHT22;292;48.800;9.216;2023-02-22T04:11:43;7.70;72.10
610;DHT22;292;48.800;9.216;2023-02-22T04:14:10;7.70;72.20
610;DHT22;292;48.800;9.216;2023-02-22T04:16:37;7.70;72.10
610;DHT22;292;48.800;9.216;2023-02-22T04:19:05;7.70;72.10
610;DHT22;292;48.800;9.216;2023-02-22T04:21:33;7.70;72.10
610;DHT22;292;48.800;9.216;2023-02-22T04:24:00;7.70;72.10
610;DHT22;292;48.800;9.216;2023-02-22T04:26:27;7.70;71.90
610;DHT22;292;48.800;9.216;2023-02-22T04:28:54;7.70;71.80
610;DHT22;292;48.800;9.216;2023-02-22T04:31:21;7.70;72.10
610;DHT22;292;48.800;9.216;2023-02-22T04:33:48;7.70;71.90
610;DHT22;292;48.800;9.216;2023-02-22T04:36:15;7.70;71.80
610;DHT22;292;48.800;9.216;2023-02-22T04:38:44;7.60;71.90
610;DHT22;292;48.800;9.216;2023-02-22T04:41:11;7.60;71.80
610;DHT22;292;48.800;9.216;2023-02-22T04:43:38;7.60;71.90
610;DHT22;292;48.800;9.216;2023-02-22T04:46:05;7.60;71.90
610;DHT22;292;48.800;9.216;2023-02-22T04:48:32;7.60;71.90
610;DHT22;292;48.800;9.216;2023-02-22T04:50:59;7.50;71.90
610;DHT22;292;48.800;9.216;2023-02-22T04:53:26;7.50;72.10
610;DHT22;292;48.800;9.216;2023-02-22T04:55:56;7.50;72.20
610;DHT22;292;48.800;9.216;2023-02-22T04:58:23;7.50;72.40
610;DHT22;292;48.800;9.216;2023-02-22T05:00:50;7.50;72.40
610;DHT22;292;48.800;9.216;2023-02-22T05:03:18;7.40;72.50
610;DHT22;292;48.800;9.216;2023-02-22T05:05:45;7.40;72.50
610;DHT22;292;48.800;9.216;2023-02-22T05:08:12;7.40;72.50
610;DHT22;292;48.800;9.216;2023-02-22T05:10:39;7.40;72.50
610;DHT22;292;48.800;9.216;2023-02-22T05:13:07;7.30;72.50
610;DHT22;292;48.800;9.216;2023-02-22T05:15:34;7.40;72.50
610;DHT22;292;48.800;9.216;2023-02-22T05:18:01;7.30;72.50
610;DHT22;292;48.800;9.216;2023-02-22T05:20:30;7.30;72.60
610;DHT22;292;48.800;9.216;2023-02-22T05:22:59;7.30;72.90
610;DHT22;292;48.800;9.216;2023-02-22T05:25:27;7.30;72.80
610;DHT22;292;48.800;9.216;2023-02-22T05:27:55;7.30;72.90
610;DHT22;292;48.800;9.216;2023-02-22T05:30:27;7.30;72.90
610;DHT22;292;48.800;9.216;2023-02-22T05:32:54;7.20;72.80
610;DHT22;292;48.800;9.216;2023-02-22T05:35:22;7.20;72.80
610;DHT22;292;48.800;9.216;2023-02-22T05:37:49;7.20;72.60
610;DHT22;292;48.800;9.216;2023-02-22T05:40:17;7.10;73.10
610;DHT22;292;48.800;9.216;2023-02-22T05:42:44;7.10;73.10
610;DHT22;292;48.800;9.216;2023-02-22T05:45:12;7.10;73.40
610;DHT22;292;48.800;9.216;2023-02-22T05:47:40;7.10;73.50
610;DHT22;292;48.800;9.216;2023-02-22T05:50:11;7.00;73.50
610;DHT22;292;48.800;9.216;2023-02-22T05:52:39;7.10;73.80
610;DHT22;292;48.800;9.216;2023-02-22T05:55:09;7.00;73.80
610;DHT22;292;48.800;9.216;2023-02-22T05:57:37;7.00;73.80
610;DHT22;292;48.800;9.216;2023-02-22T06:00:06;7.10;73.80
610;DHT22;292;48.800;9.216;2023-02-22T06:02:33;7.00;73.80
610;DHT22;292;48.800;9.216;2023-02-22T06:05:02;7.00;73.80
610;DHT22;292;48.800;9.216;2023-02-22T06:07:29;7.00;73.80
610;DHT22;292;48.800;9.216;2023-02-22T06:09:55;7.00;73.80
610;DHT22;292;48.800;9.216;2023-02-22T06:12:23;7.00;73.80
610;DHT22;292;48.800;9.216;2023-02-22T06:14:50;7.00;73.70
610;DHT22;292;48.800;9.216;2023-02-22T06:17:17;6.90;73.90
610;DHT22;292;48.800;9.216;2023-02-22T06:19:44;6.90;74.10
610;DHT22;292;48.800;9.216;2023-02-22T06:22:16;6.90;74.10
610;DHT22;292;48.800;9.216;2023-02-22T06:24:44;6.90;74.10
610;DHT22;292;48.800;9.216;2023-02-22T06:27:11;6.90;73.90
610;DHT22;292;48.800;9.216;2023-02-22T06:29:38;6.90;74.10
610;DHT22;292;48.800;9.216;2023-02-22T06:32:05;6.80;74.10
610;DHT22;292;48.800;9.216;2023-02-22T06:34:33;6.80;74.40
610;DHT22;292;48.800;9.216;2023-02-22T06:37:00;6.80;74.40
610;DHT22;292;48.800;9.216;2023-02-22T06:39:28;6.80;74.40
610;DHT22;292;48.800;9.216;2023-02-22T06:41:56;6.80;74.40
610;DHT22;292;48.800;9.216;2023-02-22T06:44:25;6.80;74.20
610;DHT22;292;48.800;9.216;2023-02-22T06:46:52;6.80;74.20
610;DHT22;292;48.800;9.216;2023-02-22T06:49:21;6.80;74.40
610;DHT22;292;48.800;9.216;2023-02-22T06:51:48;6.80;74.40
610;DHT22;292;48.800;9.216;2023-02-22T06:54:15;6.80;74.40
610;DHT22;292;48.800;9.216;2023-02-22T06:56:44;6.90;74.50
610;DHT22;292;48.800;9.216;2023-02-22T06:59:11;6.90;74.40
610;DHT22;292;48.800;9.216;2023-02-22T07:01:39;6.90;74.40
610;DHT22;292;48.800;9.216;2023-02-22T07:04:07;6.90;74.40
610;DHT22;292;48.800;9.216;2023-02-22T07:06:34;6.90;74.20
610;DHT22;292;48.800;9.216;2023-02-22T07:09:02;6.90;74.10
610;DHT22;292;48.800;9.216;2023-02-22T07:11:29;6.90;74.20
610;DHT22;292;48.800;9.216;2023-02-22T07:13:58;7.00;74.10
610;DHT22;292;48.800;9.216;2023-02-22T07:16:25;7.00;73.90
610;DHT22;292;48.800;9.216;2023-02-22T07:18:52;7.00;73.80
610;DHT22;292;48.800;9.216;2023-02-22T07:21:19;7.00;73.90
610;DHT22;292;48.800;9.216;2023-02-22T07:23:50;7.00;73.80
610;DHT22;292;48.800;9.216;2023-02-22T07:26:18;7.10;73.90
610;DHT22;292;48.800;9.216;2023-02-22T07:28:45;7.10;74.10
610;DHT22;292;48.800;9.216;2023-02-22T07:31:14;7.20;73.80
610;DHT22;292;48.800;9.216;2023-02-22T07:33:44;7.20;73.40
610;DHT22;292;48.800;9.216;2023-02-22T07:36:11;7.30;73.40
610;DHT22;292;48.800;9.216;2023-02-22T07:38:42;7.30;73.20
610;DHT22;292;48.800;9.216;2023-02-22T07:41:09;7.40;72.90
610;DHT22;292;48.800;9.216;2023-02-22T07:43:37;7.40;73.10
610;DHT22;292;48.800;9.216;2023-02-22T07:46:04;7.50;72.90
610;DHT22;292;48.800;9.216;2023-02-22T07:48:32;7.60;72.60
610;DHT22;292;48.800;9.216;2023-02-22T07:51:00;7.60;72.60
610;DHT22;292;48.800;9.216;2023-02-22T07:53:28;7.70;72.40
610;DHT22;292;48.800;9.216;2023-02-22T07:55:56;7.70;72.40
610;DHT22;292;48.800;9.216;2023-02-22T07:58:25;7.80;72.20
610;DHT22;292;48.800;9.216;2023-02-22T08:00:53;7.90;72.10
610;DHT22;292;48.800;9.216;2023-02-22T08:03:22;8.00;72.10
610;DHT22;292;48.800;9.216;2023-02-22T08:05:52;8.10;71.60
610;DHT22;292;48.800;9.216;2023-02-22T08:08:19;8.10;71.20
610;DHT22;292;48.800;9.216;2023-02-22T08:10:47;8.20;70.90
610;DHT22;292;48.800;9.216;2023-02-22T08:13:15;8.30;70.90
610;DHT22;292;48.800;9.216;2023-02-22T08:15:42;8.40;70.60
610;DHT22;292;48.800;9.216;2023-02-22T08:18:13;8.40;70.50
610;DHT22;292;48.800;9.216;2023-02-22T08:20:41;8.50;70.50
610;DHT22;292;48.800;9.216;2023-02-22T08:23:12;8.60;70.30
610;DHT22;292;48.800;9.216;2023-02-22T08:25:39;8.70;70.30
610;DHT22;292;48.800;9.216;2023-02-22T08:28:10;8.80;70.20
610;DHT22;292;48.800;9.216;2023-02-22T08:30:38;9.00;70.20
610;DHT22;292;48.800;9.216;2023-02-22T08:33:07;9.10;70.30
610;DHT22;292;48.800;9.216;2023-02-22T08:35:35;9.30;70.20
610;DHT22;292;48.800;9.216;2023-02-22T08:38:04;9.50;69.30
610;DHT22;292;48.800;9.216;2023-02-22T08:40:35;9.60;69.00
610;DHT22;292;48.800;9.216;2023-02-22T08:43:03;9.80;68.60
610;DHT22;292;48.800;9.216;2023-02-22T08:45:31;10.00;68.20
610;DHT22;292;48.800;9.216;2023-02-22T08:47:58;10.10;67.70
610;DHT22;292;48.800;9.216;2023-02-22T08:50:28;10.30;67.30
610;DHT22;292;48.800;9.216;2023-02-22T08:52:57;10.50;66.70
610;DHT22;292;48.800;9.216;2023-02-22T08:55:27;10.70;66.30
610;DHT22;292;48.800;9.216;2023-02-22T08:57:56;10.90;65.90
610;DHT22;292;48.800;9.216;2023-02-22T09:00:23;11.10;65.30
610;DHT22;292;48.800;9.216;2023-02-22T09:02:51;11.40;64.90
610;DHT22;292;48.800;9.216;2023-02-22T09:05:18;11.70;64.40
610;DHT22;292;48.800;9.216;2023-02-22T09:07:45;12.00;63.80
610;DHT22;292;48.800;9.216;2023-02-22T09:10:14;12.50;63.10
610;DHT22;292;48.800;9.216;2023-02-22T09:12:41;12.90;62.10
610;DHT22;292;48.800;9.216;2023-02-22T09:15:11;13.30;61.00
610;DHT22;292;48.800;9.216;2023-02-22T09:17:38;13.60;59.70
610;DHT22;292;48.800;9.216;2023-02-22T09:20:06;13.90;58.80
610;DHT22;292;48.800;9.216;2023-02-22T09:22:33;14.20;57.80
610;DHT22;292;48.800;9.216;2023-02-22T09:25:00;14.50;57.30
610;DHT22;292;48.800;9.216;2023-02-22T09:27:27;14.90;56.10
610;DHT22;292;48.800;9.216;2023-02-22T09:29:57;15.20;55.20
610;DHT22;292;48.800;9.216;2023-02-22T09:32:25;15.60;54.20
610;DHT22;292;48.800;9.216;2023-02-22T09:34:53;16.00;52.90
610;DHT22;292;48.800;9.216;2023-02-22T09:37:20;16.30;52.10
610;DHT22;292;48.800;9.216;2023-02-22T09:39:47;16.60;50.90
610;DHT22;292;48.800;9.216;2023-02-22T09:42:22;16.90;50.00
610;DHT22;292;48.800;9.216;2023-02-22T09:44:56;17.10;49.00
610;DHT22;292;48.800;9.216;2023-02-22T09:47:35;17.40;48.20
610;DHT22;292;48.800;9.216;2023-02-22T09:50:07;17.60;47.30
610;DHT22;292;48.800;9.216;2023-02-22T09:52:46;17.80;46.90
610;DHT22;292;48.800;9.216;2023-02-22T09:55:27;17.90;46.10
610;DHT22;292;48.800;9.216;2023-02-22T09:58:00;17.90;45.80
610;DHT22;292;48.800;9.216;2023-02-22T10:00:30;18.00;45.60
610;DHT22;292;48.800;9.216;2023-02-22T10:03:11;18.10;45.20
610;DHT22;292;48.800;9.216;2023-02-22T10:05:50;18.10;44.60
610;DHT22;292;48.800;9.216;2023-02-22T10:08:19;18.10;44.50
610;DHT22;292;48.800;9.216;2023-02-22T10:10:56;18.00;44.40
610;DHT22;292;48.800;9.216;2023-02-22T10:13:34;17.70;44.60
610;DHT22;292;48.800;9.216;2023-02-22T10:16:12;17.50;44.90
610;DHT22;292;48.800;9.216;2023-02-22T10:22:03;17.30;45.30
610;DHT22;292;48.800;9.216;2023-02-22T10:24:43;17.30;45.60
610;DHT22;292;48.800;9.216;2023-02-22T10:27:18;17.20;45.70
610;DHT22;292;48.800;9.216;2023-02-22T10:29:49;17.20;45.70
610;DHT22;292;48.800;9.216;2023-02-22T10:32:23;17.10;45.70
610;DHT22;292;48.800;9.216;2023-02-22T10:34:55;17.10;45.60
610;DHT22;292;48.800;9.216;2023-02-22T10:37:27;17.00;45.60
610;DHT22;292;48.800;9.216;2023-02-22T10:40:00;17.00;45.70
610;DHT22;292;48.800;9.216;2023-02-22T10:42:31;16.90;45.80
610;DHT22;292;48.800;9.216;2023-02-22T10:44:59;16.90;46.00
610;DHT22;292;48.800;9.216;2023-02-22T10:47:26;16.80;46.20
610;DHT22;292;48.800;9.216;2023-02-22T10:49:57;16.80;46.20
610;DHT22;292;48.800;9.216;2023-02-22T10:52:27;16.70;46.40
610;DHT22;292;48.800;9.216;2023-02-22T10:54:57;16.70;46.50
610;DHT22;292;48.800;9.216;2023-02-22T10:57:26;16.60;46.60
610;DHT22;292;48.800;9.216;2023-02-22T10:59:54;16.60;46.80
610;DHT22;292;48.800;9.216;2023-02-22T11:02:26;16.60;46.60
610;DHT22;292;48.800;9.216;2023-02-22T11:04:59;16.60;46.60
610;DHT22;292;48.800;9.216;2023-02-22T11:07:28;16.60;46.80
610;DHT22;292;48.800;9.216;2023-02-22T11:09:58;16.60;46.90
610;DHT22;292;48.800;9.216;2023-02-22T11:12:28;16.60;47.00
610;DHT22;292;48.800;9.216;2023-02-22T11:15:25;16.60;47.30
610;DHT22;292;48.800;9.216;2023-02-22T11:17:54;16.70;47.40
610;DHT22;292;48.800;9.216;2023-02-22T11:20:24;16.70;47.40
610;DHT22;292;48.800;9.216;2023-02-22T11:22:53;16.70;47.40
610;DHT22;292;48.800;9.216;2023-02-22T11:25:25;16.80;47.60
610;DHT22;292;48.800;9.216;2023-02-22T11:27:53;16.80;47.70
610;DHT22;292;48.800;9.216;2023-02-22T11:30:27;16.80;47.80
610;DHT22;292;48.800;9.216;2023-02-22T11:32:57;16.90;47.70
610;DHT22;292;48.800;9.216;2023-02-22T11:35:37;16.90;47.80
610;DHT22;292;48.800;9.216;2023-02-22T11:38:16;17.00;47.80
610;DHT22;292;48.800;9.216;2023-02-22T11:41:09;17.00;47.80
610;DHT22;292;48.800;9.216;2023-02-22T11:43:39;17.00;47.80
610;DHT22;292;48.800;9.216;2023-02-22T11:46:10;17.00;48.00
610;DHT22;292;48.800;9.216;2023-02-22T11:48:41;17.00;48.00
610;DHT22;292;48.800;9.216;2023-02-22T11:51:17;17.00;48.00
610;DHT22;292;48.800;9.216;2023-02-22T11:54:02;17.00;48.10
610;DHT22;292;48.800;9.216;2023-02-22T11:56:37;17.00;48.20
610;DHT22;292;48.800;9.216;2023-02-22T11:59:16;17.00;48.40
610;DHT22;292;48.800;9.216;2023-02-22T12:01:52;17.10;48.40
610;DHT22;292;48.800;9.216;2023-02-22T12:07:35;17.10;48.20
610;DHT22;292;48.800;9.216;2023-02-22T12:10:18;17.10;48.10
610;DHT22;292;48.800;9.216;2023-02-22T12:13:02;17.20;48.10
610;DHT22;292;48.800;9.216;2023-02-22T12:15:35;17.20;48.10
610;DHT22;292;48.800;9.216;2023-02-22T12:18:12;17.20;48.10
610;DHT22;292;48.800;9.216;2023-02-22T12:20:44;17.10;48.10
610;DHT22;292;48.800;9.216;2023-02-22T12:23:17;17.00;48.10
610;DHT22;292;48.800;9.216;2023-02-22T12:25:56;17.00;48.20
610;DHT22;292;48.800;9.216;2023-02-22T12:28:30;17.10;47.80
610;DHT22;292;48.800;9.216;2023-02-22T12:31:06;17.20;47.60
610;DHT22;292;48.800;9.216;2023-02-22T12:33:44;17.20;47.40
610;DHT22;292;48.800;9.216;2023-02-22T12:36:15;17.30;47.40
610;DHT22;292;48.800;9.216;2023-02-22T12:38:51;17.30;47.30
610;DHT22;292;48.800;9.216;2023-02-22T12:41:26;17.30;46.90
610;DHT22;292;48.800;9.216;2023-02-22T12:43:59;17.20;47.00
610;DHT22;292;48.800;9.216;2023-02-22T12:46:31;17.20;47.00
610;DHT22;292;48.800;9.216;2023-02-22T12:49:04;17.20;47.00
610;DHT22;292;48.800;9.216;2023-02-22T12:51:40;17.20;47.00
610;DHT22;292;48.800;9.216;2023-02-22T12:54:17;17.20;47.20
610;DHT22;292;48.800;9.216;2023-02-22T12:56:52;17.20;47.20
610;DHT22;292;48.800;9.216;2023-02-22T12:59:25;17.20;47.20
610;DHT22;292;48.800;9.216;2023-02-22T13:01:59;17.20;47.30
610;DHT22;292;48.800;9.216;2023-02-22T13:04:29;17.20;47.20
610;DHT22;292;48.800;9.216;2023-02-22T13:07:11;17.30;47.20
610;DHT22;292;48.800;9.216;2023-02-22T13:10:01;17.30;47.00
610;DHT22;292;48.800;9.216;2023-02-22T13:12:35;17.30;46.80
610;DHT22;292;48.800;9.216;2023-02-22T13:15:17;17.30;46.60
610;DHT22;292;48.800;9.216;2023-02-22T13:17:55;17.40;46.50
610;DHT22;292;48.800;9.216;2023-02-22T13:20:28;17.40;46.20
610;DHT22;292;48.800;9.216;2023-02-22T13:23:01;17.40;46.10
610;DHT22;292;48.800;9.216;2023-02-22T13:25:37;17.40;46.00
610;DHT22;292;48.800;9.216;2023-02-22T13:28:19;17.50;45.70
610;DHT22;292;48.800;9.216;2023-02-22T13:30:58;17.50;45.60
610;DHT22;292;48.800;9.216;2023-02-22T13:33:41;17.50;45.70
610;DHT22;292;48.800;9.216;2023-02-22T13:36:30;17.60;45.70
610;DHT22;292;48.800;9.216;2023-02-22T13:39:20;17.60;45.70
610;DHT22;292;48.800;9.216;2023-02-22T13:42:06;17.70;45.80
610;DHT22;292;48.800;9.216;2023-02-22T13:47:54;17.90;45.70
610;DHT22;292;48.800;9.216;2023-02-22T13:50:36;17.90;45.40
610;DHT22;292;48.800;9.216;2023-02-22T13:53:17;18.00;45.30
610;DHT22;292;48.800;9.216;2023-02-22T13:55:52;18.10;45.20
610;DHT22;292;48.800;9.216;2023-02-22T13:58:23;18.10;44.90
610;DHT22;292;48.800;9.216;2023-02-22T14:00:52;18.20;44.80
610;DHT22;292;48.800;9.216;2023-02-22T14:03:35;18.20;44.60
610;DHT22;292;48.800;9.216;2023-02-22T14:06:07;18.20;44.50
610;DHT22;292;48.800;9.216;2023-02-22T14:08:42;18.30;44.40
610;DHT22;292;48.800;9.216;2023-02-22T14:14:23;18.20;44.10
610;DHT22;292;48.800;9.216;2023-02-22T14:17:16;18.20;44.10
610;DHT22;292;48.800;9.216;2023-02-22T14:20:24;18.10;44.10
610;DHT22;292;48.800;9.216;2023-02-22T14:22:57;18.10;44.20
610;DHT22;292;48.800;9.216;2023-02-22T14:25:44;18.00;44.40
610;DHT22;292;48.800;9.216;2023-02-22T14:28:34;18.00;44.40
610;DHT22;292;48.800;9.216;2023-02-22T14:31:07;17.90;44.40
610;DHT22;292;48.800;9.216;2023-02-22T14:34:02;17.80;44.50
610;DHT22;292;48.800;9.216;2023-02-22T14:36:34;17.80;44.50
610;DHT22;292;48.800;9.216;2023-02-22T14:39:10;17.70;44.60
610;DHT22;292;48.800;9.216;2023-02-22T14:41:41;17.70;44.80
610;DHT22;292;48.800;9.216;2023-02-22T14:44:10;17.60;45.00
610;DHT22;292;48.800;9.216;2023-02-22T14:46:45;17.60;45.20
610;DHT22;292;48.800;9.216;2023-02-22T14:49:20;17.60;45.30
610;DHT22;292;48.800;9.216;2023-02-22T14:51:53;17.60;45.40
610;DHT22;292;48.800;9.216;2023-02-22T14:54:25;17.60;45.70
610;DHT22;292;48.800;9.216;2023-02-22T14:57:01;17.50;46.00
610;DHT22;292;48.800;9.216;2023-02-22T15:02:38;17.40;46.40
610;DHT22;292;48.800;9.216;2023-02-22T15:05:06;17.40;46.60
610;DHT22;292;48.800;9.216;2023-02-22T15:07:33;17.30;46.60
610;DHT22;292;48.800;9.216;2023-02-22T15:10:16;17.30;46.60
610;DHT22;292;48.800;9.216;2023-02-22T15:12:51;17.20;46.60
610;DHT22;292;48.800;9.216;2023-02-22T15:15:21;17.20;46.80
610;DHT22;292;48.800;9.216;2023-02-22T15:17:54;17.10;47.00
610;DHT22;292;48.800;9.216;2023-02-22T15:20:24;17.10;47.30
610;DHT22;292;48.800;9.216;2023-02-22T15:22:57;17.00;47.60
610;DHT22;292;48.800;9.216;2023-02-22T15:25:39;17.00;48.10
610;DHT22;292;48.800;9.216;2023-02-22T15:28:13;17.00;48.50
610;DHT22;292;48.800;9.216;2023-02-22T15:30:41;16.90;49.00
610;DHT22;292;48.800;9.216;2023-02-22T15:33:12;16.90;49.60
610;DHT22;292;48.800;9.216;2023-02-22T15:35:41;16.80;49.80
610;DHT22;292;48.800;9.216;2023-02-22T15:38:17;16.80;50.10
610;DHT22;292;48.800;9.216;2023-02-22T15:40:46;16.80;50.50
610;DHT22;292;48.800;9.216;2023-02-22T15:43:17;16.70;50.50
610;DHT22;292;48.800;9.216;2023-02-22T15:45:48;16.70;50.80
610;DHT22;292;48.800;9.216;2023-02-22T15:48:17;16.70;50.90
610;DHT22;292;48.800;9.216;2023-02-22T15:51:03;16.60;51.00
610;DHT22;292;48.800;9.216;2023-02-22T15:53:42;16.60;51.20
610;DHT22;292;48.800;9.216;2023-02-22T15:56:15;16.50;51.20
610;DHT22;292;48.800;9.216;2023-02-22T15:58:44;16.50;51.30
610;DHT22;292;48.800;9.216;2023-02-22T16:01:14;16.40;51.60
610;DHT22;292;48.800;9.216;2023-02-22T16:03:47;16.40;51.70
610;DHT22;292;48.800;9.216;2023-02-22T16:06:30;16.40;51.80
610;DHT22;292;48.800;9.216;2023-02-22T16:09:06;16.30;52.00
610;DHT22;292;48.800;9.216;2023-02-22T16:11:37;16.30;52.00
610;DHT22;292;48.800;9.216;2023-02-22T16:14:24;16.30;52.10
610;DHT22;292;48.800;9.216;2023-02-22T16:17:09;16.30;52.40
610;DHT22;292;48.800;9.216;2023-02-22T16:19:40;16.30;52.50
610;DHT22;292;48.800;9.216;2023-02-22T16:22:24;16.20;52.50
610;DHT22;292;48.800;9.216;2023-02-22T16:24:52;16.20;52.50
610;DHT22;292;48.800;9.216;2023-02-22T16:27:22;16.20;52.60
610;DHT22;292;48.800;9.216;2023-02-22T16:30:20;16.20;52.60
610;DHT22;292;48.800;9.216;2023-02-22T16:32:49;16.20;52.60
610;DHT22;292;48.800;9.216;2023-02-22T16:35:18;16.20;52.60
610;DHT22;292;48.800;9.216;2023-02-22T16:37:46;16.20;52.60
610;DHT22;292;48.800;9.216;2023-02-22T16:40:21;16.10;52.80
610;DHT22;292;48.800;9.216;2023-02-22T16:42:48;16.10;52.90
610;DHT22;292;48.800;9.216;2023-02-22T16:45:16;16.10;53.00
610;DHT22;292;48.800;9.216;2023-02-22T16:47:44;16.10;53.20
610;DHT22;292;48.800;9.216;2023-02-22T16:50:12;16.00;53.30
610;DHT22;292;48.800;9.216;2023-02-22T16:52:43;16.00;53.30
610;DHT22;292;48.800;9.216;2023-02-22T16:55:11;16.00;53.40
610;DHT22;292;48.800;9.216;2023-02-22T16:57:40;16.00;53.40
610;DHT22;292;48.800;9.216;2023-02-22T17:00:12;15.90;53.60
610;DHT22;292;48.800;9.216;2023-02-22T17:02:41;15.90;53.60
610;DHT22;292;48.800;9.216;2023-02-22T17:05:12;15.90;53.70
610;DHT22;292;48.800;9.216;2023-02-22T17:07:40;15.90;53.80
610;DHT22;292;48.800;9.216;2023-02-22T17:10:14;15.90;53.80
610;DHT22;292;48.800;9.216;2023-02-22T17:12:44;15.80;54.00
610;DHT22;292;48.800;9.216;2023-02-22T17:15:18;15.80;54.00
610;DHT22;292;48.800;9.216;2023-02-22T17:17:48;15.70;54.40
610;DHT22;292;48.800;9.216;2023-02-22T17:20:17;15.70;54.50
610;DHT22;292;48.800;9.216;2023-02-22T17:22:55;15.60;54.80
610;DHT22;292;48.800;9.216;2023-02-22T17:25:27;15.60;54.90
610;DHT22;292;48.800;9.216;2023-02-22T17:27:55;15.50;55.20
610;DHT22;292;48.800;9.216;2023-02-22T17:30:22;15.50;55.30
610;DHT22;292;48.800;9.216;2023-02-22T17:32:50;15.40;55.60
610;DHT22;292;48.800;9.216;2023-02-22T17:35:18;15.40;55.70